createdAt,value
2019-01-23T00:00:49.669Z,99541.22
2019-01-23T00:03:21.080Z,99548.30
2019-01-23T00:05:52.171Z,99546.02
2019-01-23T00:08:23.920Z,99542.63
2019-01-23T00:10:55.393Z,99543.47
2019-01-23T00:13:26.671Z,99534.95
2019-01-23T00:15:57.772Z,99541.15
2019-01-23T00:18:29.348Z,99541.52
2019-01-23T00:21:00.737Z,99543.96
2019-01-23T00:23:32.227Z,99539.34
2019-01-23T00:26:03.158Z,99541.41
2019-01-23T00:28:33.786Z,99537.33
2019-01-23T00:31:04.891Z,99532.22
2019-01-23T00:33:35.789Z,99526.92
2019-01-23T00:36:06.781Z,99522.55
2019-01-23T00:38:37.445Z,99523.15
2019-01-23T00:41:08.205Z,99519.66
2019-01-23T00:43:38.805Z,99519.45
2019-01-23T00:46:09.502Z,99518.73
2019-01-23T00:48:40.134Z,99520.01
2019-01-23T00:51:10.743Z,99512.94
2019-01-23T00:53:41.995Z,99518.17
2019-01-23T00:56:13.095Z,99507.77
2019-01-23T00:58:49.168Z,99516.47
2019-01-23T01:01:17.045Z,99506.35
2019-01-23T01:03:48.097Z,99513.53
2019-01-23T01:06:19.160Z,99512.77
2019-01-23T01:08:50.427Z,99507.96
2019-01-23T01:11:21.688Z,99509.63
2019-01-23T01:13:52.849Z,99505.56
2019-01-23T01:16:24.008Z,99506.08
2019-01-23T01:18:55.077Z,99503.16
2019-01-23T01:21:27.105Z,99499.30
2019-01-23T01:23:57.829Z,99497.81
2019-01-23T01:26:29.791Z,99503.64
2019-01-23T01:29:00.408Z,99505.75
2019-01-23T01:31:31.481Z,99500.55
2019-01-23T01:34:02.721Z,99506.81
2019-01-23T01:36:34.871Z,99512.81
2019-01-23T01:39:09.604Z,99505.72
2019-01-23T01:41:41.084Z,99506.56
2019-01-23T01:44:12.176Z,99503.36
2019-01-23T01:46:43.676Z,99506.63
2019-01-23T01:49:15.044Z,99506.12
2019-01-23T01:51:46.160Z,99496.88
2019-01-23T01:54:18.004Z,99500.11
2019-01-23T01:56:49.492Z,99504.77
2019-01-23T01:59:20.935Z,99504.41
2019-01-23T02:01:51.608Z,99501.05
2019-01-23T02:04:22.145Z,99506.27
2019-01-23T02:06:53.094Z,99498.28
2019-01-23T02:09:23.800Z,99496.00
2019-01-23T02:11:55.211Z,99488.56
2019-01-23T02:14:26.684Z,99493.98
2019-01-23T02:16:57.897Z,99487.01
2019-01-23T02:19:31.728Z,99483.91
2019-01-23T02:22:03.155Z,99483.36
2019-01-23T02:24:34.410Z,99478.84
2019-01-23T02:27:06.946Z,99479.20
2019-01-23T02:29:38.418Z,99470.16
2019-01-23T02:32:10.467Z,99469.47
2019-01-23T02:34:42.443Z,99474.44
2019-01-23T02:37:13.495Z,99467.45
2019-01-23T02:39:44.608Z,99465.67
2019-01-23T02:42:15.341Z,99460.91
2019-01-23T02:44:46.295Z,99459.86
2019-01-23T02:47:17.276Z,99458.03
2019-01-23T02:49:48.413Z,99452.58
2019-01-23T02:52:19.716Z,99455.48
2019-01-23T02:54:50.568Z,99447.38
2019-01-23T02:57:21.737Z,99444.95
2019-01-23T02:59:53.693Z,99446.58
2019-01-23T03:02:25.921Z,99436.33
2019-01-23T03:04:57.754Z,99437.56
2019-01-23T03:07:28.984Z,99439.01
2019-01-23T03:10:00.591Z,99441.59
2019-01-23T03:12:31.844Z,99442.75
2019-01-23T03:15:03.001Z,99440.61
2019-01-23T03:17:34.559Z,99431.30
2019-01-23T03:20:07.087Z,99435.48
2019-01-23T03:22:38.639Z,99432.97
2019-01-23T03:25:11.500Z,99429.55
2019-01-23T03:27:43.029Z,99431.47
2019-01-23T03:30:17.868Z,99434.09
2019-01-23T03:32:49.466Z,99428.53
2019-01-23T03:35:20.757Z,99430.59
2019-01-23T03:37:51.499Z,99429.33
2019-01-23T03:40:23.226Z,99427.94
2019-01-23T03:42:53.964Z,99430.88
2019-01-23T03:45:24.750Z,99433.86
2019-01-23T03:47:56.097Z,99433.90
2019-01-23T03:50:27.664Z,99431.31
2019-01-23T03:52:59.627Z,99429.93
2019-01-23T03:55:30.832Z,99442.65
2019-01-23T03:58:02.009Z,99438.92
2019-01-23T04:00:33.239Z,99444.81
2019-01-23T04:03:05.549Z,99452.11
2019-01-23T04:05:37.089Z,99453.71
2019-01-23T04:08:08.153Z,99458.28
2019-01-23T04:10:39.457Z,99454.70
2019-01-23T04:13:10.105Z,99451.77
2019-01-23T04:15:40.824Z,99458.91
2019-01-23T04:18:11.997Z,99451.97
2019-01-23T04:20:42.999Z,99457.28
2019-01-23T04:23:14.135Z,99456.25
2019-01-23T04:25:48.999Z,99447.23
2019-01-23T04:28:20.132Z,99452.36
2019-01-23T04:30:51.319Z,99450.58
2019-01-23T04:33:22.580Z,99449.78
2019-01-23T04:35:53.791Z,99445.84
2019-01-23T04:38:25.201Z,99454.03
2019-01-23T04:40:56.367Z,99447.44
2019-01-23T04:43:27.467Z,99461.42
2019-01-23T04:45:58.683Z,99458.16
2019-01-23T04:48:30.175Z,99453.47
2019-01-23T04:51:12.240Z,99457.21
2019-01-23T04:53:45.079Z,99459.00
2019-01-23T04:56:15.891Z,99463.52
2019-01-23T04:58:46.797Z,99463.52
2019-01-23T05:01:17.548Z,99456.17
2019-01-23T05:03:48.511Z,99457.97
2019-01-23T05:06:19.160Z,99455.77
2019-01-23T05:08:49.892Z,99459.59
2019-01-23T05:11:20.995Z,99458.35
2019-01-23T05:13:52.552Z,99455.53
2019-01-23T05:16:23.265Z,99447.07
2019-01-23T05:18:54.091Z,99449.41
2019-01-23T05:21:25.648Z,99450.83
2019-01-23T05:23:56.666Z,99451.70
2019-01-23T05:26:27.443Z,99446.34
2019-01-23T05:28:58.470Z,99443.56
2019-01-23T05:31:29.489Z,99443.56
2019-01-23T05:34:00.571Z,99443.80
2019-01-23T05:36:31.347Z,99442.40
2019-01-23T05:39:02.392Z,99442.52
2019-01-23T05:41:33.387Z,99444.94
2019-01-23T05:44:04.818Z,99453.03
2019-01-23T05:46:37.156Z,99448.31
2019-01-23T05:49:08.330Z,99448.75
2019-01-23T05:51:39.030Z,99448.31
2019-01-23T05:54:09.766Z,99446.16
2019-01-23T05:56:41.466Z,99455.64
2019-01-23T05:59:12.548Z,99457.34
2019-01-23T06:01:44.156Z,99467.50
2019-01-23T06:04:14.973Z,99463.74
2019-01-23T06:06:45.987Z,99460.60
2019-01-23T06:09:16.961Z,99465.23
2019-01-23T06:11:47.738Z,99465.23
2019-01-23T06:14:18.766Z,99472.63
2019-01-23T06:16:49.493Z,99475.13
2019-01-23T06:19:20.224Z,99470.57
2019-01-23T06:21:50.976Z,99470.48
2019-01-23T06:24:21.785Z,99470.48
2019-01-23T06:26:52.873Z,99474.17
2019-01-23T06:29:23.952Z,99472.86
2019-01-23T06:31:54.646Z,99475.52
2019-01-23T06:34:26.555Z,99478.98
2019-01-23T06:36:57.524Z,99473.55
2019-01-23T06:39:28.876Z,99474.42
2019-01-23T06:41:59.939Z,99467.02
2019-01-23T06:44:30.643Z,99478.49
2019-01-23T06:47:01.923Z,99473.48
2019-01-23T06:49:32.659Z,99472.02
2019-01-23T06:52:05.497Z,99469.77
2019-01-23T06:54:36.509Z,99471.04
2019-01-23T06:57:07.671Z,99477.52
2019-01-23T06:59:38.945Z,99488.47
2019-01-23T07:02:09.695Z,99481.80
2019-01-23T07:04:40.814Z,99480.53
2019-01-23T07:07:11.527Z,99485.27
2019-01-23T07:09:42.413Z,99486.22
2019-01-23T07:12:13.204Z,99487.14
2019-01-23T07:14:44.117Z,99493.14
2019-01-23T07:17:15.359Z,99491.07
2019-01-23T07:19:46.399Z,99488.66
2019-01-23T07:22:17.491Z,99495.48
2019-01-23T07:24:48.146Z,99499.69
2019-01-23T07:27:18.965Z,99492.11
2019-01-23T07:29:49.598Z,99500.47
2019-01-23T07:32:20.526Z,99496.65
2019-01-23T07:34:51.262Z,99500.94
2019-01-23T07:37:22.079Z,99499.00
2019-01-23T07:39:52.802Z,99502.45
2019-01-23T07:42:23.957Z,99499.23
2019-01-23T07:44:54.785Z,99501.03
2019-01-23T07:47:25.870Z,99500.28
2019-01-23T07:49:56.979Z,99495.66
2019-01-23T07:52:28.056Z,99496.94
2019-01-23T07:54:59.127Z,99497.18
2019-01-23T07:57:30.503Z,99497.30
2019-01-23T08:00:01.548Z,99499.48
2019-01-23T08:02:32.238Z,99510.85
2019-01-23T08:05:03.557Z,99502.98
2019-01-23T08:07:34.301Z,99506.12
2019-01-23T08:10:06.349Z,99504.61
2019-01-23T08:12:37.362Z,99506.98
2019-01-23T08:15:15.570Z,99507.70
2019-01-23T08:17:46.299Z,99507.53
2019-01-23T08:20:18.886Z,99512.05
2019-01-23T08:22:49.620Z,99510.24
2019-01-23T08:25:20.940Z,99512.69
2019-01-23T08:27:51.745Z,99512.05
2019-01-23T08:30:22.719Z,99514.41
2019-01-23T08:32:53.865Z,99518.05
2019-01-23T08:35:24.763Z,99513.98
2019-01-23T08:37:56.174Z,99515.03
2019-01-23T08:40:26.952Z,99516.53
2019-01-23T08:42:58.174Z,99520.67
2019-01-23T08:45:28.831Z,99511.65
2019-01-23T08:47:59.555Z,99515.36
2019-01-23T08:50:43.006Z,99513.72
2019-01-23T08:53:14.251Z,99506.35
2019-01-23T08:55:44.910Z,99509.34
2019-01-23T08:58:16.309Z,99512.64
2019-01-23T09:00:47.665Z,99502.78
2019-01-23T09:03:18.309Z,99506.98
2019-01-23T09:05:49.290Z,99513.66
2019-01-23T09:08:20.330Z,99508.63
2019-01-23T09:10:51.377Z,99516.48
2019-01-23T09:13:22.555Z,99515.41
2019-01-23T09:15:53.499Z,99514.04
2019-01-23T09:18:24.237Z,99517.12
2019-01-23T09:20:55.920Z,99520.52
2019-01-23T09:23:26.955Z,99519.64
2019-01-23T09:25:57.694Z,99533.80
2019-01-23T09:28:28.414Z,99519.81
2019-01-23T09:31:59.378Z,99522.70
2019-01-23T09:35:40.887Z,99523.59
2019-01-23T09:39:24.236Z,99523.22
2019-01-23T09:43:01.689Z,99522.55
2019-01-23T09:46:00.017Z,99529.56
2019-01-23T09:49:14.155Z,99532.42
2019-01-23T09:52:54.123Z,99535.47
2019-01-23T09:55:25.245Z,99525.34
2019-01-23T09:58:00.041Z,99524.34
2019-01-23T10:00:31.828Z,99529.05
2019-01-23T10:03:02.882Z,99525.71
2019-01-23T10:05:33.957Z,99532.69
2019-01-23T10:08:05.577Z,99532.06
2019-01-23T10:10:36.584Z,99532.56
2019-01-23T10:13:07.346Z,99533.40
2019-01-23T10:15:54.147Z,99534.08
2019-01-23T10:18:24.859Z,99536.57
2019-01-23T10:20:55.901Z,99529.54
2019-01-23T10:23:27.485Z,99525.50
2019-01-23T10:25:58.316Z,99512.95
2019-01-23T10:28:29.234Z,99517.30
2019-01-23T10:31:06.417Z,99520.77
2019-01-23T10:33:33.117Z,99524.56
2019-01-23T10:36:04.562Z,99523.16
2019-01-23T10:38:35.717Z,99518.45
2019-01-23T10:41:07.425Z,99526.30
2019-01-23T10:43:38.552Z,99531.13
2019-01-23T10:46:09.624Z,99530.17
2019-01-23T10:48:40.587Z,99528.52
2019-01-23T10:51:12.124Z,99534.63
2019-01-23T10:53:43.206Z,99531.07
2019-01-23T10:56:15.530Z,99523.31
2019-01-23T10:58:51.938Z,99527.89
2019-01-23T11:01:23.831Z,99531.78
2019-01-23T11:03:55.040Z,99524.44
2019-01-23T11:06:25.860Z,99520.51
2019-01-23T11:08:58.414Z,99515.31
2019-01-23T11:11:29.134Z,99523.53
2019-01-23T11:14:00.299Z,99515.03
2019-01-23T11:16:31.421Z,99512.36
2019-01-23T11:19:03.326Z,99518.44
2019-01-23T11:21:33.979Z,99514.83
2019-01-23T11:24:05.671Z,99512.63
2019-01-23T11:26:36.510Z,99518.42
2019-01-23T11:29:07.311Z,99514.70
2019-01-23T11:31:38.041Z,99506.86
2019-01-23T11:34:08.910Z,99513.97
2019-01-23T11:36:39.629Z,99513.97
2019-01-23T11:39:22.744Z,99518.37
2019-01-23T11:41:55.904Z,99532.09
2019-01-23T11:44:26.655Z,99519.55
2019-01-23T11:46:57.723Z,99524.81
2019-01-23T11:49:28.863Z,99516.89
2019-01-23T11:52:00.111Z,99516.48
2019-01-23T11:54:30.889Z,99519.86
2019-01-23T11:57:01.635Z,99520.27
2019-01-23T11:59:32.372Z,99524.89
2019-01-23T12:02:03.158Z,99516.59
2019-01-23T12:04:34.183Z,99520.16
2019-01-23T12:07:05.306Z,99518.80
2019-01-23T12:09:36.371Z,99514.73
2019-01-23T12:12:07.516Z,99520.64
2019-01-23T12:14:38.192Z,99515.08
2019-01-23T12:17:09.462Z,99523.69
2019-01-23T12:19:40.468Z,99523.30
2019-01-23T12:22:11.238Z,99527.52
2019-01-23T12:24:42.263Z,99524.66
2019-01-23T12:27:13.343Z,99522.79
2019-01-23T12:29:44.335Z,99526.63
2019-01-23T12:32:15.133Z,99523.78
2019-01-23T12:34:45.911Z,99520.89
2019-01-23T12:37:17.202Z,99517.91
2019-01-23T12:39:48.828Z,99516.00
2019-01-23T12:42:19.484Z,99516.00
2019-01-23T12:44:50.125Z,99516.98
2019-01-23T12:47:21.233Z,99519.02
2019-01-23T12:49:52.364Z,99518.81
2019-01-23T12:52:23.702Z,99517.95
2019-01-23T12:54:54.559Z,99518.44
2019-01-23T12:57:25.318Z,99517.97
2019-01-23T12:59:56.395Z,99519.73
2019-01-23T13:02:27.240Z,99520.47
2019-01-23T13:04:58.546Z,99520.23
2019-01-23T13:07:33.400Z,99521.84
2019-01-23T13:10:01.658Z,99523.38
2019-01-23T13:12:32.575Z,99516.80
2019-01-23T13:15:03.299Z,99518.75
2019-01-23T13:17:34.077Z,99524.09
2019-01-23T13:20:05.933Z,99512.70
2019-01-23T13:22:36.662Z,99515.69
2019-01-23T13:25:11.421Z,99520.25
2019-01-23T13:27:42.413Z,99522.06
2019-01-23T13:30:17.215Z,99513.05
2019-01-23T13:32:48.278Z,99524.03
2019-01-23T13:35:22.903Z,99523.91
2019-01-23T13:37:53.901Z,99524.81
2019-01-23T13:40:33.931Z,99525.65
2019-01-23T13:43:05.835Z,99528.06
2019-01-23T13:45:36.561Z,99530.77
2019-01-23T13:48:09.506Z,99528.82
2019-01-23T13:50:40.442Z,99529.86
2019-01-23T13:53:11.999Z,99536.73
2019-01-23T13:55:43.046Z,99538.00
2019-01-23T13:58:13.775Z,99539.20
2019-01-23T14:00:44.783Z,99541.84
2019-01-23T14:03:16.680Z,99539.89
2019-01-23T14:05:47.413Z,99544.18
2019-01-23T14:08:18.087Z,99540.91
2019-01-23T14:10:48.855Z,99547.64
2019-01-23T14:13:19.891Z,99544.36
2019-01-23T14:15:50.942Z,99544.29
2019-01-23T14:18:22.188Z,99541.30
2019-01-23T14:20:52.895Z,99545.97
2019-01-23T14:23:23.734Z,99548.53
2019-01-23T14:25:55.103Z,99547.88
2019-01-23T14:28:26.221Z,99545.01
2019-01-23T14:30:57.719Z,99553.58
2019-01-23T14:33:28.518Z,99540.94
2019-01-23T14:35:59.342Z,99548.38
2019-01-23T14:38:30.688Z,99557.61
2019-01-23T14:41:01.790Z,99559.05
2019-01-23T14:43:32.495Z,99563.89
2019-01-23T14:46:03.601Z,99566.86
2019-01-23T14:48:34.359Z,99575.48
2019-01-23T14:51:05.157Z,99569.36
2019-01-23T14:53:36.460Z,99570.77
2019-01-23T14:56:07.277Z,99577.96
2019-01-23T14:58:37.995Z,99572.67
2019-01-23T15:01:08.711Z,99570.62
2019-01-23T15:03:40.041Z,99587.06
2019-01-23T15:06:11.088Z,99592.10
2019-01-23T15:08:41.832Z,99582.66
2019-01-23T15:11:12.802Z,99597.94
2019-01-23T15:13:43.694Z,99593.77
2019-01-23T15:16:14.890Z,99597.16
2019-01-23T15:18:46.329Z,99594.99
2019-01-23T15:21:17.405Z,99598.89
2019-01-23T15:23:48.223Z,99599.24
2019-01-23T15:26:19.076Z,99607.25
2019-01-23T15:28:49.860Z,99604.61
2019-01-23T15:31:21.596Z,99607.25
2019-01-23T15:33:52.362Z,99610.58
2019-01-23T15:36:23.094Z,99616.34
2019-01-23T15:38:54.095Z,99608.59
2019-01-23T15:41:25.912Z,99610.11
2019-01-23T15:43:56.638Z,99611.87
2019-01-23T15:46:27.362Z,99611.80
2019-01-23T15:48:58.060Z,99616.59
2019-01-23T15:51:29.018Z,99623.94
2019-01-23T15:54:00.351Z,99623.94
2019-01-23T15:56:31.369Z,99625.14
2019-01-23T15:59:02.166Z,99629.14
2019-01-23T16:01:32.867Z,99632.43
2019-01-23T16:04:03.573Z,99629.06
2019-01-23T16:06:34.208Z,99636.21
2019-01-23T16:13:23.244Z,99644.58
2019-01-23T16:15:53.985Z,99641.55
2019-01-23T16:18:24.946Z,99645.48
2019-01-23T16:20:56.923Z,99642.75
2019-01-23T16:23:27.845Z,99649.23
2019-01-23T16:25:58.485Z,99653.37
2019-01-23T16:28:29.165Z,99654.56
2019-01-23T16:30:59.805Z,99655.38
2019-01-23T16:33:30.485Z,99660.11
2019-01-23T16:36:01.451Z,99664.25
2019-01-23T16:38:32.901Z,99667.21
2019-01-23T16:41:04.107Z,99664.56
2019-01-23T16:43:34.780Z,99663.29
2019-01-23T16:46:05.476Z,99665.70
2019-01-23T16:48:36.105Z,99669.54
2019-01-23T16:51:07.151Z,99674.63
2019-01-23T16:53:38.717Z,99678.14
2019-01-23T16:56:10.339Z,99676.46
2019-01-23T16:58:41.342Z,99675.59
2019-01-23T17:01:12.650Z,99675.44
2019-01-23T17:03:43.580Z,99676.17
2019-01-23T17:06:14.357Z,99678.23
2019-01-23T17:08:44.945Z,99688.69
2019-01-23T17:11:15.836Z,99690.26
2019-01-23T17:13:46.799Z,99693.67
2019-01-23T17:16:17.462Z,99689.83
2019-01-23T17:18:48.051Z,99690.55
2019-01-23T17:21:19.147Z,99697.91
2019-01-23T17:23:50.055Z,99704.80
2019-01-23T17:26:21.021Z,99703.64
2019-01-23T17:28:52.358Z,99707.53
2019-01-23T17:31:23.389Z,99702.39
2019-01-23T17:33:54.369Z,99703.37
2019-01-23T17:36:25.398Z,99701.94
2019-01-23T17:38:56.380Z,99695.76
2019-01-23T17:41:27.339Z,99711.16
2019-01-23T17:43:58.693Z,99715.62
2019-01-23T17:46:30.313Z,99717.95
2019-01-23T17:49:01.303Z,99715.59
2019-01-23T17:51:32.317Z,99721.41
2019-01-23T17:54:03.504Z,99722.18
2019-01-23T17:56:34.429Z,99728.91
2019-01-23T17:59:05.096Z,99729.23
2019-01-23T18:01:36.549Z,99726.25
2019-01-23T18:04:08.319Z,99733.00
2019-01-23T18:06:39.666Z,99739.02
2019-01-23T18:09:11.572Z,99735.19
2019-01-23T18:11:42.529Z,99745.84
2019-01-23T18:14:14.296Z,99745.40
2019-01-23T18:16:45.622Z,99758.61
2019-01-23T18:19:16.621Z,99756.86
2019-01-23T18:21:48.259Z,99768.17
2019-01-23T18:24:19.227Z,99768.28
2019-01-23T18:26:50.178Z,99772.52
2019-01-23T18:29:22.318Z,99775.14
2019-01-23T18:32:00.674Z,99779.73
2019-01-23T18:35:49.721Z,99774.96
2019-01-23T18:39:05.320Z,99782.73
2019-01-23T18:42:20.333Z,99787.91
2019-01-23T18:45:47.318Z,99792.91
2019-01-23T18:49:22.840Z,99800.06
2019-01-23T18:52:06.927Z,99795.86
2019-01-23T18:54:37.557Z,99801.27
2019-01-23T18:57:11.349Z,99801.63
2019-01-23T18:59:43.129Z,99807.03
2019-01-23T19:02:14.596Z,99807.22
2019-01-23T19:04:45.558Z,99813.20
2019-01-23T19:07:16.586Z,99816.63
2019-01-23T19:09:47.607Z,99817.06
2019-01-23T19:12:18.766Z,99823.23
2019-01-23T19:14:49.735Z,99829.73
2019-01-23T19:17:20.735Z,99828.99
2019-01-23T19:19:52.051Z,99828.63
2019-01-23T19:22:23.128Z,99832.28
2019-01-23T19:24:54.381Z,99836.47
2019-01-23T19:27:25.384Z,99833.16
2019-01-23T19:29:56.401Z,99833.01
2019-01-23T19:32:27.068Z,99835.45
2019-01-23T19:34:58.015Z,99835.13
2019-01-23T19:37:28.622Z,99840.48
2019-01-23T19:39:59.513Z,99844.23
2019-01-23T19:42:30.520Z,99845.88
2019-01-23T19:45:01.477Z,99848.21
2019-01-23T19:47:32.429Z,99852.51
2019-01-23T19:50:04.573Z,99852.48
2019-01-23T19:52:35.527Z,99862.43
2019-01-23T19:55:07.728Z,99868.98
2019-01-23T19:57:38.384Z,99870.70
2019-01-23T20:00:15.371Z,99883.86
2019-01-23T20:02:46.212Z,99885.33
2019-01-23T20:05:21.425Z,99891.12
2019-01-23T20:07:52.312Z,99891.70
2019-01-23T20:10:24.281Z,99886.47
2019-01-23T20:12:54.949Z,99901.86
2019-01-23T20:15:25.683Z,99901.89
2019-01-23T20:18:01.039Z,99899.07
2019-01-23T20:20:31.706Z,99908.20
2019-01-23T20:23:02.739Z,99914.90
2019-01-23T20:25:33.468Z,99925.59
2019-01-23T20:28:07.396Z,99926.41
2019-01-23T20:30:41.002Z,99929.57
2019-01-23T20:33:11.606Z,99932.45
2019-01-23T20:35:42.307Z,99928.77
2019-01-23T20:38:13.011Z,99935.66
2019-01-23T20:40:43.613Z,99938.89
2019-01-23T20:43:14.262Z,99938.53
2019-01-23T20:45:44.866Z,99943.93
2019-01-23T20:48:15.594Z,99946.09
2019-01-23T20:50:46.548Z,99944.33
2019-01-23T20:53:17.182Z,99948.55
2019-01-23T20:55:48.080Z,99946.13
2019-01-23T20:58:18.757Z,99947.36
2019-01-23T21:00:49.389Z,99955.84
2019-01-23T21:03:20.907Z,99960.05
2019-01-23T21:05:52.277Z,99962.70
2019-01-23T21:08:22.957Z,99965.54
2019-01-23T21:10:53.574Z,99967.29
2019-01-23T21:13:24.629Z,99968.34
2019-01-23T21:15:55.294Z,99970.03
2019-01-23T21:18:25.885Z,99976.56
2019-01-23T21:20:56.463Z,99978.77
2019-01-23T21:23:27.359Z,99978.37
2019-01-23T21:25:57.926Z,99983.59
2019-01-23T21:28:28.593Z,99978.16
2019-01-23T21:30:59.307Z,99984.22
2019-01-23T21:33:30.227Z,99980.09
2019-01-23T21:36:00.856Z,99985.20
2019-01-23T21:38:31.728Z,99988.84
2019-01-23T21:41:02.340Z,100001.50
2019-01-23T21:43:33.068Z,100003.26
2019-01-23T21:46:03.963Z,99996.41
2019-01-23T21:48:34.575Z,100009.50
2019-01-23T21:51:05.857Z,100006.69
2019-01-23T21:53:36.464Z,100015.08
2019-01-23T21:56:07.199Z,100014.99
2019-01-23T21:58:37.849Z,100019.34
2019-01-23T22:01:08.494Z,100028.62
2019-01-23T22:03:39.148Z,100026.20
2019-01-23T22:06:09.952Z,100027.33
2019-01-23T22:08:40.551Z,100030.75
2019-01-23T22:11:11.822Z,100031.76
2019-01-23T22:13:42.774Z,100032.34
2019-01-23T22:16:13.434Z,100044.55
2019-01-23T22:18:44.257Z,100047.28
2019-01-23T22:21:18.814Z,100043.84
2019-01-23T22:23:50.979Z,100051.55
2019-01-23T22:26:21.875Z,100051.55
2019-01-23T22:28:52.556Z,100045.66
2019-01-23T22:31:25.060Z,100056.59
2019-01-23T22:33:56.766Z,100055.44
2019-01-23T22:36:27.809Z,100060.19
2019-01-23T22:38:58.682Z,100060.83
2019-01-23T22:41:29.303Z,100061.88
2019-01-23T22:44:00.242Z,100064.11
2019-01-23T22:46:31.137Z,100062.05
2019-01-23T22:49:01.820Z,100067.48
2019-01-23T22:51:32.795Z,100072.44
2019-01-23T22:54:03.706Z,100074.94
2019-01-23T22:56:34.384Z,100076.89
2019-01-23T22:59:05.404Z,100089.34
2019-01-23T23:01:36.061Z,100088.66
2019-01-23T23:04:06.700Z,100084.84
2019-01-23T23:06:37.287Z,100088.08
2019-01-23T23:09:10.903Z,100093.75
2019-01-23T23:11:41.574Z,100093.58
2019-01-23T23:14:13.329Z,100098.61
2019-01-23T23:16:44.282Z,100099.21
2019-01-23T23:19:14.884Z,100104.25
2019-01-23T23:21:45.558Z,100102.24
2019-01-23T23:24:16.081Z,100110.28
2019-01-23T23:26:46.543Z,100126.42
2019-01-23T23:29:17.491Z,100119.23
2019-01-23T23:31:48.021Z,100122.27
2019-01-23T23:34:18.641Z,100121.61
2019-01-23T23:36:51.199Z,100125.29
2019-01-23T23:39:22.020Z,100111.77
2019-01-23T23:41:52.708Z,100111.77
2019-01-23T23:44:23.692Z,100126.22
2019-01-23T23:46:55.573Z,100123.64
2019-01-23T23:49:26.230Z,100120.34
2019-01-23T23:51:58.031Z,100122.88
2019-01-23T23:54:29.480Z,100132.75
2019-01-23T23:57:02.565Z,100143.83
2019-01-23T23:59:33.224Z,100134.85
